Phelps, New York
Current Conditions -  °F | °C
As of 9:32 PM on Tuesday 21 Oct 2014 (Local Time) from KPEO Reporting Station
Haze Haze  
Wind Chill: 50°   Ceiling: 300
Heat Index: 50°   Visibility: 2.5mi
Dew Point: 49°   Wind: 6mph
Humidity: 96%   Direction: 350°N
Pressure: 30"   Gusts: NA
Location:  42.96°N, 77.06°W
Report Text: KPEO 220132Z AUTO 35005KT 2 1/2SM BR OVC003 10/09 A3000 RMK AO2 RAB12E30 P0000 T01000094
Loading
Personal Weather Stations






























Interactive Weather Map New forecast layout! Learn more

10-Day Weather Forecast

Advertisements
Track Severe Weather on mobile